createdAt,value
2017-07-16T00:00:06.099Z,13.70
2017-07-16T00:02:35.799Z,13.70
2017-07-16T00:05:05.867Z,13.60
2017-07-16T00:07:35.411Z,13.60
2017-07-16T00:10:04.917Z,13.60
2017-07-16T00:12:34.544Z,13.60
2017-07-16T00:15:04.565Z,13.60
2017-07-16T00:17:35.899Z,13.50
2017-07-16T00:20:05.632Z,13.50
2017-07-16T00:22:35.220Z,13.40
2017-07-16T00:25:05.475Z,13.50
2017-07-16T00:27:35.567Z,13.60
2017-07-16T00:30:05.515Z,13.60
2017-07-16T00:32:35.509Z,13.70
2017-07-16T00:35:05.069Z,13.80
2017-07-16T00:37:34.851Z,13.80
2017-07-16T00:40:04.411Z,13.80
2017-07-16T00:42:33.892Z,13.80
2017-07-16T00:45:03.943Z,13.70
2017-07-16T00:47:33.807Z,13.70
2017-07-16T00:50:03.739Z,13.70
2017-07-16T00:52:33.678Z,13.60
2017-07-16T00:55:03.327Z,13.70
2017-07-16T00:57:33.089Z,13.70
2017-07-16T01:00:03.166Z,13.60
2017-07-16T01:02:33.371Z,13.40
2017-07-16T01:05:03.881Z,13.40
2017-07-16T01:07:33.671Z,13.40
2017-07-16T01:10:03.219Z,13.40
2017-07-16T01:12:33.008Z,13.50
2017-07-16T01:15:03.015Z,13.70
2017-07-16T01:17:33.443Z,13.80
2017-07-16T01:20:03.235Z,13.70
2017-07-16T01:22:32.953Z,13.60
2017-07-16T01:25:02.935Z,13.70
2017-07-16T01:27:32.763Z,13.80
2017-07-16T01:30:03.742Z,13.60
2017-07-16T01:32:33.249Z,13.60
2017-07-16T01:35:02.758Z,13.70
2017-07-16T01:37:32.557Z,13.50
2017-07-16T01:40:02.078Z,13.70
2017-07-16T01:42:31.595Z,13.80
2017-07-16T01:45:01.090Z,13.90
2017-07-16T01:47:30.799Z,13.90
2017-07-16T01:50:01.377Z,13.90
2017-07-16T01:52:31.771Z,13.90
2017-07-16T01:55:01.536Z,13.80
2017-07-16T01:57:31.044Z,13.70
2017-07-16T02:00:00.529Z,13.60
2017-07-16T02:02:30.356Z,13.50
2017-07-16T02:04:59.844Z,13.60
2017-07-16T02:07:29.514Z,13.60
2017-07-16T02:09:59.289Z,13.50
2017-07-16T02:12:28.838Z,13.60
2017-07-16T02:14:58.664Z,13.60
2017-07-16T02:17:28.609Z,13.60
2017-07-16T02:19:59.304Z,13.40
2017-07-16T02:22:29.347Z,13.40
2017-07-16T02:24:59.232Z,13.40
2017-07-16T02:27:29.727Z,13.50
2017-07-16T02:29:59.675Z,13.60
2017-07-16T02:32:29.633Z,13.60
2017-07-16T02:36:58.343Z,13.80
2017-07-16T02:39:28.203Z,13.80
2017-07-16T02:42:58.470Z,13.90
2017-07-16T02:45:29.203Z,13.70
2017-07-16T02:48:00.421Z,13.60
2017-07-16T02:50:29.954Z,13.60
2017-07-16T02:53:00.133Z,13.60
2017-07-16T02:55:30.648Z,13.60
2017-07-16T02:58:00.656Z,13.50
2017-07-16T03:00:30.437Z,13.50
2017-07-16T03:03:01.127Z,13.60
2017-07-16T03:05:30.995Z,13.70
2017-07-16T03:08:01.483Z,13.70
2017-07-16T03:10:30.980Z,13.70
2017-07-16T03:13:00.467Z,13.60
2017-07-16T03:15:30.612Z,13.50
2017-07-16T03:18:00.165Z,13.40
2017-07-16T03:20:29.808Z,13.40
2017-07-16T03:23:00.269Z,13.30
2017-07-16T03:25:38.257Z,13.30
2017-07-16T03:28:08.658Z,13.40
2017-07-16T03:30:38.730Z,13.40
2017-07-16T03:33:10.058Z,13.60
2017-07-16T03:35:40.121Z,13.60
2017-07-16T03:38:10.073Z,13.70
2017-07-16T03:40:40.397Z,13.70
2017-07-16T03:43:10.730Z,13.80
2017-07-16T03:45:40.421Z,13.70
2017-07-16T03:48:11.054Z,13.70
2017-07-16T03:50:40.546Z,13.60
2017-07-16T03:53:10.077Z,13.70
2017-07-16T03:55:39.836Z,13.50
2017-07-16T03:58:09.552Z,13.80
2017-07-16T04:00:39.202Z,13.90
2017-07-16T04:03:09.021Z,14.00
2017-07-16T04:05:38.979Z,13.90
2017-07-16T04:08:09.369Z,14.00
2017-07-16T04:10:39.569Z,14.00
2017-07-16T04:13:09.813Z,14.00
2017-07-16T04:15:40.713Z,14.00
2017-07-16T04:18:10.399Z,14.10
2017-07-16T04:20:41.359Z,14.20
2017-07-16T04:23:11.095Z,14.10
2017-07-16T04:25:40.630Z,14.20
2017-07-16T04:28:11.200Z,14.40
2017-07-16T04:30:40.929Z,14.60
2017-07-16T04:33:10.767Z,14.70
2017-07-16T04:35:40.958Z,14.80
2017-07-16T04:38:11.106Z,14.80
2017-07-16T04:40:40.840Z,14.80
2017-07-16T04:43:10.938Z,14.90
2017-07-16T04:45:40.923Z,14.80
2017-07-16T04:48:11.104Z,14.80
2017-07-16T04:50:40.622Z,14.90
2017-07-16T04:53:10.150Z,15.00
2017-07-16T04:55:39.961Z,15.10
2017-07-16T04:58:09.832Z,15.50
2017-07-16T05:00:39.751Z,16.10
2017-07-16T05:03:09.342Z,16.10
2017-07-16T05:05:39.408Z,16.80
2017-07-16T05:08:09.172Z,17.50
2017-07-16T05:10:38.924Z,18.10
2017-07-16T05:13:08.688Z,18.30
2017-07-16T05:15:38.592Z,18.40
2017-07-16T05:18:08.593Z,18.20
2017-07-16T05:20:38.692Z,18.00
2017-07-16T05:23:08.161Z,17.90
2017-07-16T05:25:37.665Z,17.60
2017-07-16T05:28:07.499Z,17.90
2017-07-16T05:30:37.454Z,17.40
2017-07-16T05:33:07.225Z,17.50
2017-07-16T05:35:36.737Z,17.90
2017-07-16T05:38:06.235Z,18.00
2017-07-16T05:40:36.431Z,18.10
2017-07-16T05:43:05.988Z,17.80
2017-07-16T05:45:35.511Z,18.10
2017-07-16T05:48:05.537Z,18.10
2017-07-16T05:50:35.349Z,18.10
2017-07-16T05:53:05.599Z,18.10
2017-07-16T05:55:35.132Z,17.70
2017-07-16T05:58:05.240Z,17.80
2017-07-16T06:00:35.584Z,17.90
2017-07-16T06:03:05.187Z,18.00
2017-07-16T06:05:35.936Z,17.80
2017-07-16T06:08:05.492Z,17.80
2017-07-16T06:10:35.084Z,17.90
2017-07-16T06:13:04.866Z,18.00
2017-07-16T06:15:34.372Z,18.30
2017-07-16T06:18:04.049Z,18.50
2017-07-16T06:20:33.868Z,18.50
2017-07-16T06:23:04.472Z,18.60
2017-07-16T06:25:33.988Z,18.50
2017-07-16T06:28:03.468Z,19.00
2017-07-16T06:30:32.987Z,21.00
2017-07-16T06:33:03.084Z,23.80
2017-07-16T06:35:32.584Z,25.20
2017-07-16T06:38:02.092Z,26.40
2017-07-16T06:40:31.610Z,27.50
2017-07-16T06:43:01.083Z,28.60
2017-07-16T06:45:30.847Z,28.30
2017-07-16T06:48:00.506Z,28.60
2017-07-16T06:50:30.017Z,29.60
2017-07-16T06:52:59.837Z,30.30
2017-07-16T06:55:29.389Z,31.20
2017-07-16T06:57:58.931Z,31.20
2017-07-16T07:00:28.614Z,30.60
2017-07-16T07:02:58.132Z,30.90
2017-07-16T07:05:27.944Z,31.70
2017-07-16T07:07:57.416Z,32.10
2017-07-16T07:10:26.888Z,31.90
2017-07-16T07:12:56.637Z,32.40
2017-07-16T07:15:26.133Z,32.90
2017-07-16T07:17:55.671Z,33.70
2017-07-16T07:20:25.188Z,34.10
2017-07-16T07:22:54.669Z,35.00
2017-07-16T07:25:24.536Z,34.10
2017-07-16T07:27:54.031Z,34.50
2017-07-16T07:30:23.540Z,35.10
2017-07-16T07:32:53.036Z,36.70
2017-07-16T07:35:22.748Z,37.40
2017-07-16T07:37:52.548Z,36.10
2017-07-16T07:40:22.404Z,34.50
2017-07-16T07:42:51.884Z,33.20
2017-07-16T07:45:21.796Z,34.20
2017-07-16T07:47:51.307Z,35.70
2017-07-16T07:50:20.882Z,32.60
2017-07-16T07:52:50.460Z,28.20
2017-07-16T07:55:20.145Z,28.70
2017-07-16T07:57:50.006Z,24.40
2017-07-16T08:00:19.565Z,23.90
2017-07-16T08:02:49.107Z,24.90
2017-07-16T08:05:18.891Z,26.70
2017-07-16T08:07:48.482Z,26.30
2017-07-16T08:10:18.044Z,28.60
2017-07-16T08:12:47.620Z,30.90
2017-07-16T08:15:17.232Z,33.70
2017-07-16T08:17:47.441Z,26.30
2017-07-16T08:20:34.952Z,22.60
2017-07-16T08:23:04.747Z,22.80
2017-07-16T08:25:34.267Z,23.00
2017-07-16T08:28:04.182Z,23.90
2017-07-16T08:30:33.708Z,21.20
2017-07-16T08:33:03.420Z,21.80
2017-07-16T08:35:33.315Z,21.00
2017-07-16T08:38:02.856Z,21.50
2017-07-16T08:40:32.395Z,20.60
2017-07-16T08:43:01.952Z,20.80
2017-07-16T08:45:32.329Z,20.40
2017-07-16T08:48:01.886Z,20.60
2017-07-16T08:50:31.434Z,21.50
2017-07-16T08:53:01.553Z,22.60
2017-07-16T08:55:31.083Z,24.30
2017-07-16T08:58:00.651Z,25.80
2017-07-16T09:00:30.168Z,26.90
2017-07-16T09:02:59.713Z,26.70
2017-07-16T09:05:29.549Z,25.20
2017-07-16T09:07:59.100Z,25.20
2017-07-16T09:10:28.572Z,25.30
2017-07-16T09:12:58.192Z,25.20
2017-07-16T09:15:27.716Z,24.20
2017-07-16T09:17:57.749Z,23.30
2017-07-16T09:20:27.228Z,22.30
2017-07-16T09:22:56.813Z,23.40
2017-07-16T09:25:26.300Z,23.70
2017-07-16T09:27:55.859Z,23.90
2017-07-16T09:30:27.578Z,24.30
2017-07-16T09:32:57.293Z,25.80
2017-07-16T09:35:26.922Z,27.10
2017-07-16T09:37:56.865Z,28.50
2017-07-16T09:40:34.281Z,30.90
2017-07-16T09:43:04.235Z,31.40
2017-07-16T09:45:33.804Z,29.70
2017-07-16T09:48:03.367Z,26.60
2017-07-16T09:50:33.483Z,25.70
2017-07-16T09:53:03.400Z,24.10
2017-07-16T09:55:33.491Z,25.60
2017-07-16T09:58:04.846Z,27.10
2017-07-16T10:00:34.804Z,27.40
2017-07-16T10:03:04.687Z,26.50
2017-07-16T10:05:34.185Z,25.00
2017-07-16T10:08:03.746Z,26.90
2017-07-16T10:10:33.583Z,27.80
2017-07-16T10:13:14.344Z,29.10
2017-07-16T10:15:44.179Z,31.30
2017-07-16T10:18:13.814Z,28.60
2017-07-16T10:20:43.340Z,23.80
2017-07-16T10:23:13.152Z,23.40
2017-07-16T10:25:42.667Z,21.20
2017-07-16T10:28:12.316Z,20.40
2017-07-16T10:30:42.165Z,20.00
2017-07-16T10:33:11.708Z,21.00
2017-07-16T10:35:41.687Z,21.60
2017-07-16T10:38:11.501Z,21.60
2017-07-16T10:40:41.016Z,22.20
2017-07-16T10:43:10.561Z,22.80
2017-07-16T10:45:40.104Z,23.50
2017-07-16T10:48:09.619Z,24.00
2017-07-16T10:50:39.450Z,24.10
2017-07-16T10:53:08.959Z,23.70
2017-07-16T10:55:38.525Z,22.60
2017-07-16T10:58:08.154Z,21.80
2017-07-16T11:00:37.659Z,23.10
2017-07-16T11:03:07.773Z,24.20
2017-07-16T11:05:37.458Z,25.00
2017-07-16T11:08:07.064Z,24.10
2017-07-16T11:10:37.043Z,23.40
2017-07-16T11:13:06.877Z,24.30
2017-07-16T11:15:36.527Z,24.50
2017-07-16T11:18:06.042Z,24.00
2017-07-16T11:20:35.603Z,25.10
2017-07-16T11:23:05.404Z,25.60
2017-07-16T11:25:34.931Z,25.90
2017-07-16T11:28:04.975Z,26.00
2017-07-16T11:30:34.980Z,25.80
2017-07-16T11:33:04.559Z,25.50
2017-07-16T11:35:34.347Z,25.00
2017-07-16T11:38:03.941Z,24.60
2017-07-16T11:40:33.830Z,24.90
2017-07-16T11:43:04.285Z,24.10
2017-07-16T11:45:33.856Z,24.60
2017-07-16T11:48:03.450Z,25.20
2017-07-16T11:50:32.983Z,25.70
2017-07-16T11:53:02.821Z,25.10
2017-07-16T11:55:33.504Z,25.60
2017-07-16T11:58:03.586Z,25.90
2017-07-16T12:00:33.668Z,25.80
2017-07-16T12:03:03.768Z,25.60
2017-07-16T12:05:34.508Z,25.50
2017-07-16T12:08:04.344Z,25.40
2017-07-16T12:10:33.937Z,25.20
2017-07-16T12:13:04.093Z,25.30
2017-07-16T12:15:34.449Z,25.40
2017-07-16T12:18:05.034Z,24.80
2017-07-16T12:20:47.047Z,24.80
2017-07-16T12:23:17.024Z,24.20
2017-07-16T12:25:46.576Z,24.40
2017-07-16T12:28:16.100Z,24.70
2017-07-16T12:30:45.641Z,25.10
2017-07-16T12:33:15.187Z,25.50
2017-07-16T12:35:44.963Z,25.60
2017-07-16T12:38:14.915Z,25.50
2017-07-16T12:40:44.445Z,24.60
2017-07-16T12:43:14.211Z,25.00
2017-07-16T12:45:43.712Z,24.80
2017-07-16T12:48:13.212Z,25.00
2017-07-16T12:50:42.708Z,24.20
2017-07-16T12:53:12.302Z,24.50
2017-07-16T12:55:42.068Z,24.60
2017-07-16T12:58:11.591Z,24.40
2017-07-16T13:00:41.925Z,22.90
2017-07-16T13:03:11.537Z,22.90
2017-07-16T13:05:41.405Z,22.40
2017-07-16T13:08:11.619Z,22.50
2017-07-16T13:10:41.265Z,22.70
2017-07-16T13:13:11.044Z,23.00
2017-07-16T13:15:41.120Z,23.20
2017-07-16T13:18:10.883Z,23.80
2017-07-16T13:20:40.946Z,24.40
2017-07-16T13:23:10.600Z,23.50
2017-07-16T13:25:40.420Z,23.50
2017-07-16T13:28:10.661Z,22.70
2017-07-16T13:30:40.622Z,22.50
2017-07-16T13:33:10.445Z,22.00
2017-07-16T13:35:40.059Z,22.10
2017-07-16T13:38:09.728Z,22.60
2017-07-16T13:40:39.606Z,22.80
2017-07-16T13:43:09.178Z,22.50
2017-07-16T13:45:38.973Z,23.30
2017-07-16T13:48:08.591Z,23.90
2017-07-16T13:50:38.986Z,23.00
2017-07-16T13:54:38.997Z,23.30
2017-07-16T13:57:08.592Z,23.40
2017-07-16T13:59:38.173Z,23.50
2017-07-16T14:02:07.797Z,23.20
2017-07-16T14:04:39.009Z,23.20
2017-07-16T14:07:08.641Z,23.00
2017-07-16T14:09:38.241Z,22.80
2017-07-16T14:12:07.760Z,22.60
2017-07-16T14:14:37.399Z,22.60
2017-07-16T14:17:07.993Z,22.60
2017-07-16T14:19:37.535Z,22.30
2017-07-16T14:22:07.262Z,22.30
2017-07-16T14:24:36.994Z,22.80
2017-07-16T14:27:06.525Z,22.50
2017-07-16T14:29:36.705Z,22.40
2017-07-16T14:32:06.231Z,22.70
2017-07-16T14:34:36.077Z,22.80
2017-07-16T14:37:06.205Z,23.30
2017-07-16T14:39:35.965Z,23.10
2017-07-16T14:42:05.527Z,22.80
2017-07-16T14:44:35.332Z,22.60
2017-07-16T14:47:05.048Z,22.60
2017-07-16T14:49:35.127Z,22.60
2017-07-16T14:52:05.415Z,22.60
2017-07-16T14:54:35.204Z,22.80
2017-07-16T14:57:05.181Z,22.80
2017-07-16T14:59:34.677Z,23.30
2017-07-16T15:02:04.354Z,23.30
2017-07-16T15:04:34.283Z,22.80
2017-07-16T15:07:04.819Z,22.70
2017-07-16T15:09:34.743Z,22.20
2017-07-16T15:12:12.417Z,22.60
2017-07-16T15:14:48.712Z,22.60
2017-07-16T15:18:37.720Z,22.60
2017-07-16T15:21:07.688Z,22.60
2017-07-16T15:23:43.558Z,22.80
2017-07-16T15:26:15.098Z,22.80
2017-07-16T15:28:44.952Z,22.80
2017-07-16T15:31:14.457Z,22.70
2017-07-16T15:33:44.343Z,22.60
2017-07-16T15:36:14.187Z,22.80
2017-07-16T15:38:43.712Z,22.90
2017-07-16T15:41:13.273Z,23.20
2017-07-16T15:43:43.100Z,22.70
2017-07-16T15:46:12.973Z,22.30
2017-07-16T15:48:42.459Z,22.50
2017-07-16T15:51:12.012Z,22.50
2017-07-16T15:53:41.795Z,22.50
2017-07-16T15:56:11.294Z,22.50
2017-07-16T15:58:40.785Z,22.50
2017-07-16T16:01:10.357Z,22.20
2017-07-16T16:03:39.909Z,22.50
2017-07-16T16:06:09.693Z,22.60
2017-07-16T16:08:39.192Z,22.70
2017-07-16T16:11:08.803Z,22.80
2017-07-16T16:13:38.496Z,23.00
2017-07-16T16:16:08.083Z,22.50
2017-07-16T16:18:38.186Z,22.40
2017-07-16T16:21:08.068Z,22.50
2017-07-16T16:23:37.659Z,22.30
2017-07-16T16:26:07.192Z,22.10
2017-07-16T16:28:36.763Z,22.10
2017-07-16T16:31:06.371Z,22.10
2017-07-16T16:33:35.930Z,22.10
2017-07-16T16:36:05.451Z,22.10
2017-07-16T16:38:35.312Z,22.10
2017-07-16T16:41:04.869Z,22.20
2017-07-16T16:43:34.593Z,22.00
2017-07-16T16:46:04.610Z,22.00
2017-07-16T16:48:35.122Z,22.10
2017-07-16T16:51:04.635Z,22.30
2017-07-16T16:53:34.323Z,22.30
2017-07-16T16:56:04.262Z,22.20
2017-07-16T16:58:34.115Z,22.20
2017-07-16T17:01:03.741Z,22.20
2017-07-16T17:03:33.450Z,22.20
2017-07-16T17:06:02.994Z,22.40
2017-07-16T17:08:32.573Z,22.40
2017-07-16T17:11:02.379Z,22.40
2017-07-16T17:13:31.919Z,22.20
2017-07-16T17:16:02.623Z,22.20
2017-07-16T17:18:32.409Z,22.20
2017-07-16T17:21:02.225Z,22.40
2017-07-16T17:23:31.962Z,22.40
2017-07-16T17:26:01.751Z,22.00
2017-07-16T17:28:31.285Z,22.00
2017-07-16T17:31:00.812Z,22.20
2017-07-16T17:33:30.746Z,22.20
2017-07-16T17:36:00.394Z,22.20
2017-07-16T17:38:30.203Z,22.10
2017-07-16T17:40:59.755Z,22.10
2017-07-16T17:43:29.940Z,22.00
2017-07-16T17:46:00.259Z,21.90
2017-07-16T17:48:32.544Z,21.90
2017-07-16T17:51:02.557Z,22.00
2017-07-16T17:53:32.561Z,21.90
2017-07-16T17:56:02.365Z,21.50
2017-07-16T17:58:33.183Z,21.40
2017-07-16T18:01:02.900Z,21.00
2017-07-16T18:03:32.731Z,20.90
2017-07-16T18:06:02.891Z,20.80
2017-07-16T18:08:34.591Z,20.70
2017-07-16T18:11:04.811Z,20.60
2017-07-16T18:13:34.391Z,20.10
2017-07-16T18:16:03.988Z,19.80
2017-07-16T18:18:35.553Z,19.60
2017-07-16T18:21:07.897Z,19.40
2017-07-16T18:23:39.432Z,19.30
2017-07-16T18:26:09.100Z,19.10
2017-07-16T18:28:39.644Z,18.90
2017-07-16T18:31:09.495Z,19.10
2017-07-16T18:33:42.987Z,19.30
2017-07-16T18:36:16.951Z,19.40
2017-07-16T18:38:47.489Z,19.40
2017-07-16T18:41:17.196Z,19.40
2017-07-16T18:43:48.221Z,19.30
2017-07-16T18:46:18.313Z,19.20
2017-07-16T18:48:47.881Z,19.10
2017-07-16T18:51:18.204Z,19.00
2017-07-16T18:53:48.054Z,18.90
2017-07-16T18:56:17.597Z,18.80
2017-07-16T18:58:47.372Z,18.70
2017-07-16T19:01:17.758Z,18.70
2017-07-16T19:03:47.812Z,18.60
2017-07-16T19:06:18.861Z,18.60
2017-07-16T19:08:49.088Z,18.50
2017-07-16T19:11:19.183Z,18.50
2017-07-16T19:13:49.806Z,18.20
2017-07-16T19:16:19.421Z,18.00
2017-07-16T19:18:49.270Z,17.70
2017-07-16T19:21:19.875Z,17.60
2017-07-16T19:23:49.775Z,17.90
2017-07-16T19:26:20.233Z,18.00
2017-07-16T19:28:49.799Z,18.00
2017-07-16T19:31:21.096Z,17.90
2017-07-16T19:33:51.022Z,17.90
2017-07-16T19:36:20.800Z,17.90
2017-07-16T19:38:50.728Z,17.90
2017-07-16T19:41:20.367Z,17.60
2017-07-16T19:43:50.198Z,17.50
2017-07-16T19:46:19.932Z,17.50
2017-07-16T19:48:49.497Z,17.50
2017-07-16T19:51:19.315Z,17.30
2017-07-16T19:53:48.868Z,17.30
2017-07-16T19:56:18.776Z,17.30
2017-07-16T19:58:48.388Z,17.00
2017-07-16T20:01:18.030Z,17.00
2017-07-16T20:03:47.836Z,16.90
2017-07-16T20:06:17.376Z,16.80
2017-07-16T20:08:47.257Z,16.70
2017-07-16T20:11:16.783Z,16.80
2017-07-16T20:13:46.310Z,16.50
2017-07-16T20:16:16.429Z,16.40
2017-07-16T20:18:45.978Z,16.50
2017-07-16T20:21:15.589Z,16.60
2017-07-16T20:23:45.764Z,16.70
2017-07-16T20:26:16.540Z,16.70
2017-07-16T20:28:46.656Z,16.70
2017-07-16T20:31:16.759Z,16.60
2017-07-16T20:33:46.962Z,16.50
2017-07-16T20:36:16.915Z,16.50
2017-07-16T20:38:47.606Z,16.30
2017-07-16T20:41:17.112Z,16.30
2017-07-16T20:43:47.054Z,16.30
2017-07-16T20:46:17.174Z,16.40
2017-07-16T20:48:46.692Z,16.40
2017-07-16T20:51:16.855Z,16.40
2017-07-16T20:53:46.360Z,16.40
2017-07-16T20:56:15.896Z,16.30
2017-07-16T20:58:45.531Z,16.20
2017-07-16T21:01:15.116Z,16.20
2017-07-16T21:03:45.248Z,16.10
2017-07-16T21:06:15.073Z,16.20
2017-07-16T21:08:44.900Z,16.30
2017-07-16T21:11:14.461Z,16.20
2017-07-16T21:13:44.103Z,16.10
2017-07-16T21:16:13.913Z,16.20
2017-07-16T21:18:43.412Z,16.10
2017-07-16T21:21:13.021Z,16.10
2017-07-16T21:23:42.795Z,16.20
2017-07-16T21:26:12.266Z,16.00
2017-07-16T21:28:42.099Z,16.00
2017-07-16T21:31:11.604Z,16.20
2017-07-16T21:33:41.157Z,16.20
2017-07-16T21:36:11.380Z,16.20
2017-07-16T21:38:41.012Z,16.30
2017-07-16T21:41:11.133Z,16.40
2017-07-16T21:43:40.952Z,16.40
2017-07-16T21:46:10.956Z,16.40
2017-07-16T21:48:40.893Z,16.40
2017-07-16T21:51:11.046Z,16.40
2017-07-16T21:53:40.875Z,16.30
2017-07-16T21:56:11.029Z,16.40
2017-07-16T21:58:40.948Z,16.40
2017-07-16T22:01:10.651Z,16.50
2017-07-16T22:03:40.139Z,16.50
2017-07-16T22:06:09.979Z,16.50
2017-07-16T22:08:39.858Z,16.50
2017-07-16T22:11:09.352Z,16.50
2017-07-16T22:13:38.876Z,16.40
2017-07-16T22:16:08.711Z,16.30
2017-07-16T22:18:38.247Z,16.40
2017-07-16T22:21:07.732Z,16.40
2017-07-16T22:23:37.241Z,16.60
2017-07-16T22:26:06.727Z,16.60
2017-07-16T22:28:36.531Z,16.60
2017-07-16T22:31:06.041Z,16.70
2017-07-16T22:33:35.571Z,16.70
2017-07-16T22:36:05.112Z,16.80
2017-07-16T22:38:34.641Z,16.80
2017-07-16T22:41:04.584Z,16.90
2017-07-16T22:43:34.876Z,17.00
2017-07-16T22:46:04.772Z,17.00
2017-07-16T22:48:34.912Z,16.90
2017-07-16T22:51:05.017Z,17.00
2017-07-16T22:53:34.763Z,17.00
2017-07-16T22:56:04.476Z,16.90
2017-07-16T22:58:34.197Z,16.90
2017-07-16T23:01:04.006Z,17.00
2017-07-16T23:03:33.482Z,17.10
2017-07-16T23:06:02.964Z,17.10
2017-07-16T23:08:32.834Z,17.00
2017-07-16T23:11:02.837Z,16.90
2017-07-16T23:13:32.389Z,17.00
2017-07-16T23:16:03.897Z,16.80
2017-07-16T23:18:33.601Z,16.80
2017-07-16T23:21:03.943Z,16.70
2017-07-16T23:23:33.862Z,16.70
2017-07-16T23:26:03.350Z,16.80
2017-07-16T23:28:33.184Z,16.70
2017-07-16T23:31:02.984Z,16.60
2017-07-16T23:33:33.291Z,16.50
2017-07-16T23:36:03.271Z,16.50
2017-07-16T23:38:33.851Z,16.10
2017-07-16T23:41:04.416Z,16.00
2017-07-16T23:43:34.181Z,16.10
2017-07-16T23:46:04.379Z,16.20
2017-07-16T23:48:34.529Z,16.20
2017-07-16T23:51:04.334Z,16.20
2017-07-16T23:53:34.573Z,16.20
2017-07-16T23:56:04.690Z,16.10
2017-07-16T23:58:34.706Z,16.10
